Time;durP1;ratioP1;P1;durP2;ratioP2;P2;SDS_P1;SDS_P2;PMS_P1;PMS_P2;Temp;Humidity;BMP_temperature;BMP_pressure;BME280_temperature;BME280_humidity;BME280_pressure;Samples;Min_cycle;Max_cycle;Signal;HPM_P1;HPM_P2
2021/12/30 00:02:19;;;;;;;3.78;2.10;;;8.40;99.90;;;;;;5046659;28;20083;-80
2021/12/30 00:04:44;;;;;;;2.65;1.92;;;8.40;99.90;;;;;;5045332;28;20068;-80
2021/12/30 00:07:11;;;;;;;2.70;1.13;;;8.40;99.90;;;;;;5016788;28;20799;-82
2021/12/30 00:09:37;;;;;;;;;;;8.30;99.90;;;;;;5030953;28;20055;-80
2021/12/30 00:12:03;;;;;;;11.60;2.03;;;8.20;99.90;;;;;;5048271;28;19931;-83
2021/12/30 00:14:29;;;;;;;1.50;1.23;;;8.20;99.90;;;;;;5030348;28;20095;-80
2021/12/30 00:16:55;;;;;;;4.97;1.75;;;8.20;99.90;;;;;;5049025;28;20037;-82
2021/12/30 00:19:21;;;;;;;4.00;2.05;;;8.20;99.90;;;;;;5046590;28;20684;-81
2021/12/30 00:21:47;;;;;;;1.80;1.00;;;8.20;99.90;;;;;;5036686;28;20065;-80
2021/12/30 00:24:12;;;;;;;4.63;1.70;;;8.20;99.90;;;;;;5055993;28;20037;-82
2021/12/30 00:26:38;;;;;;;7.38;1.50;;;8.20;99.90;;;;;;5052258;28;20055;-81
2021/12/30 00:29:04;;;;;;;7.72;1.75;;;8.20;99.90;;;;;;5051086;28;20085;-81
2021/12/30 00:31:31;;;;;;;2.40;0.95;;;8.10;99.90;;;;;;5029158;28;20057;-81
2021/12/30 00:33:57;;;;;;;4.63;1.85;;;8.10;99.90;;;;;;5039676;28;20045;-82
2021/12/30 00:36:22;;;;;;;2.75;1.77;;;8.10;99.90;;;;;;5042004;28;20372;-81
2021/12/30 00:38:48;;;;;;;5.32;1.88;;;8.00;99.90;;;;;;5030815;28;20041;-83
2021/12/30 00:41:15;;;;;;;5.80;1.65;;;8.00;99.90;;;;;;5016408;28;20039;-81
2021/12/30 00:43:41;;;;;;;3.05;1.88;;;8.10;99.90;;;;;;5052649;28;20058;-81
2021/12/30 00:46:08;;;;;;;5.63;1.63;;;8.20;99.90;;;;;;5031038;28;20546;-81
2021/12/30 00:48:34;;;;;;;3.13;1.75;;;8.10;99.90;;;;;;5046798;28;20111;-82
2021/12/30 00:51:00;;;;;;;3.78;1.75;;;8.10;99.90;;;;;;5047879;28;20033;-78
2021/12/30 00:53:26;;;;;;;7.03;1.85;;;8.00;99.90;;;;;;5050249;28;20124;-80
2021/12/30 00:55:52;;;;;;;2.80;1.75;;;8.00;99.90;;;;;;5049263;28;20125;-81
2021/12/30 00:58:19;;;;;;;;;;;8.10;99.90;;;;;;5050644;28;20456;-83
2021/12/30 01:00:46;;;;;;;3.20;1.40;;;8.10;99.90;;;;;;5047313;28;20409;-82
2021/12/30 01:03:13;;;;;;;7.75;2.33;;;8.00;99.90;;;;;;5049521;28;20441;-82
2021/12/30 01:05:39;;;;;;;8.25;2.28;;;8.00;99.90;;;;;;5043461;28;20123;-80
2021/12/30 01:08:06;;;;;;;6.90;2.92;;;8.00;99.90;;;;;;5049804;28;20045;-81
2021/12/30 01:10:34;;;;;;;1.80;1.05;;;8.30;99.90;;;;;;5044464;28;20036;-80
2021/12/30 01:13:05;;;;;;;12.77;2.35;;;7.90;99.90;;;;;;5032132;28;20395;-81
2021/12/30 01:15:44;;;;;;;8.07;2.45;;;7.90;99.90;;;;;;5035349;28;20044;-82
2021/12/30 01:18:30;;;;;;;3.35;1.20;;;7.90;99.90;;;;;;5032614;28;20467;-81
2021/12/30 01:20:57;;;;;;;8.75;2.60;;;7.90;99.90;;;;;;5044227;28;20052;-79
2021/12/30 01:23:23;;;;;;;4.43;2.35;;;7.80;99.90;;;;;;5051970;28;20052;-81
2021/12/30 01:25:49;;;;;;;2.13;1.23;;;7.80;99.90;;;;;;5051628;28;20174;-82
2021/12/30 01:28:15;;;;;;;9.20;1.92;;;7.80;99.90;;;;;;5048727;28;20119;-81
2021/12/30 01:30:42;;;;;;;14.30;1.77;;;7.70;99.90;;;;;;5048233;28;20041;-80
2021/12/30 01:33:07;;;;;;;;;;;7.70;99.90;;;;;;5043654;28;20509;-82
2021/12/30 01:35:33;;;;;;;10.57;2.30;;;7.60;99.90;;;;;;5043735;28;19917;-81
2021/12/30 01:38:01;;;;;;;8.63;2.60;;;7.60;99.90;;;;;;5051286;28;20044;-81
2021/12/30 01:40:29;;;;;;;3.83;1.65;;;7.60;99.90;;;;;;5056990;28;20041;-82
2021/12/30 01:42:54;;;;;;;8.48;2.58;;;7.60;99.90;;;;;;5047692;28;20051;-79
2021/12/30 01:45:20;;;;;;;6.32;1.83;;;7.60;99.90;;;;;;5051636;28;20048;-81
2021/12/30 01:47:52;;;;;;;8.02;2.00;;;7.50;99.90;;;;;;5033465;28;20071;-82
2021/12/30 01:50:19;;;;;;;13.93;2.35;;;7.60;99.90;;;;;;5049719;28;20494;-80
2021/12/30 01:52:45;;;;;;;2.40;1.77;;;7.60;99.90;;;;;;5034017;28;20033;-82
2021/12/30 01:55:12;;;;;;;9.65;2.83;;;7.60;99.90;;;;;;5028896;28;20056;-82
2021/12/30 01:57:39;;;;;;;15.45;1.88;;;7.60;99.90;;;;;;5031935;28;20463;-83
2021/12/30 02:00:07;;;;;;;12.45;2.97;;;7.70;99.90;;;;;;5049593;28;20057;-81
2021/12/30 02:02:33;;;;;;;10.48;2.35;;;7.50;99.90;;;;;;5048440;28;20102;-82
2021/12/30 02:04:59;;;;;;;2.05;1.58;;;7.50;99.90;;;;;;5047975;28;20045;-81
2021/12/30 02:07:24;;;;;;;2.80;1.45;;;7.50;99.90;;;;;;5051290;28;20458;-81
2021/12/30 02:09:51;;;;;;;4.15;1.50;;;7.50;99.90;;;;;;5049729;28;20053;-81
2021/12/30 02:12:17;;;;;;;3.50;1.58;;;7.40;99.90;;;;;;5049047;28;20461;-80
2021/12/30 02:14:43;;;;;;;2.92;2.05;;;7.50;99.90;;;;;;5049934;28;20395;-82
2021/12/30 02:17:08;;;;;;;5.90;2.22;;;7.40;99.90;;;;;;5050010;28;20048;-82
2021/12/30 02:19:35;;;;;;;7.72;2.58;;;7.40;99.90;;;;;;5031906;28;20044;-81
2021/12/30 02:22:00;;;;;;;;;;;7.40;99.90;;;;;;5063366;28;20045;-81
2021/12/30 02:24:27;;;;;;;10.10;1.48;;;7.40;99.90;;;;;;5049936;28;19935;-82
2021/12/30 02:26:53;;;;;;;6.03;2.60;;;7.40;99.90;;;;;;5076995;28;20144;-83
2021/12/30 02:29:19;;;;;;;25.10;4.10;;;7.30;99.90;;;;;;5048969;28;20553;-82
2021/12/30 02:31:45;;;;;;;8.98;2.13;;;7.30;99.90;;;;;;5050050;28;20076;-82
2021/12/30 02:34:10;;;;;;;15.30;2.85;;;7.50;99.90;;;;;;5059504;28;20076;-81
2021/12/30 02:36:37;;;;;;;5.25;1.63;;;7.50;99.90;;;;;;5048296;28;20055;-82
2021/12/30 02:39:06;;;;;;;12.85;2.90;;;7.50;99.90;;;;;;5046320;28;20037;-83
2021/12/30 02:41:37;;;;;;;7.53;1.77;;;7.50;99.90;;;;;;5032873;28;20045;-83
2021/12/30 02:44:07;;;;;;;2.00;1.42;;;7.40;99.90;;;;;;5029262;28;20025;-81
2021/12/30 02:46:34;;;;;;;8.38;2.78;;;7.30;99.90;;;;;;5073663;28;20045;-83
2021/12/30 02:49:00;;;;;;;10.05;3.35;;;7.30;99.90;;;;;;5030233;28;20093;-83
2021/12/30 02:51:26;;;;;;;5.38;3.10;;;7.40;99.90;;;;;;5030958;28;20119;-83
2021/12/30 02:53:54;;;;;;;4.57;1.73;;;7.40;99.90;;;;;;5029314;28;20064;-82
2021/12/30 02:56:21;;;;;;;6.05;2.15;;;7.40;99.90;;;;;;5050580;28;20043;-82
2021/12/30 02:58:47;;;;;;;6.53;2.88;;;7.40;99.90;;;;;;5072257;28;20056;-81
2021/12/30 03:01:17;;;;;;;5.43;2.55;;;7.40;99.90;;;;;;5047601;28;20163;-81
2021/12/30 03:03:43;;;;;;;13.40;2.33;;;7.40;99.90;;;;;;5045075;28;20072;-81
2021/12/30 03:06:11;;;;;;;5.28;2.40;;;7.50;99.90;;;;;;5045372;28;20152;-81
2021/12/30 03:08:37;;;;;;;9.18;2.17;;;7.40;99.90;;;;;;5071193;28;20190;-83
2021/12/30 03:11:04;;;;;;;3.80;1.83;;;7.50;99.90;;;;;;5049231;28;20137;-83
2021/12/30 03:13:31;;;;;;;9.10;2.65;;;7.50;99.90;;;;;;5035573;28;20052;-81
2021/12/30 03:16:06;;;;;;;3.72;2.67;;;7.50;99.90;;;;;;5044921;28;20052;-81
2021/12/30 03:18:35;;;;;;;13.20;2.65;;;7.60;99.90;;;;;;5029792;28;20044;-81
2021/12/30 03:21:03;;;;;;;4.95;2.17;;;7.60;99.90;;;;;;5008828;28;1095379;-83
2021/12/30 03:23:29;;;;;;;10.50;3.38;;;7.60;99.90;;;;;;5064903;28;20098;-83
2021/12/30 03:25:54;;;;;;;;;;;7.60;99.90;;;;;;5048918;28;20041;-81
2021/12/30 03:28:20;;;;;;;8.90;2.47;;;7.60;99.90;;;;;;5046595;28;19923;-80
2021/12/30 03:30:46;;;;;;;8.63;2.17;;;7.70;99.90;;;;;;5048280;28;20046;-82
2021/12/30 03:33:12;;;;;;;7.15;3.33;;;7.90;99.90;;;;;;5028607;28;20094;-81
2021/12/30 03:35:38;;;;;;;8.10;3.13;;;7.90;99.90;;;;;;5044942;28;20119;-82
2021/12/30 03:38:04;;;;;;;;;;;7.90;99.90;;;;;;5046889;28;20040;-83
2021/12/30 03:40:30;;;;;;;5.60;2.30;;;7.90;99.90;;;;;;5047394;28;19917;-82
2021/12/30 03:42:56;;;;;;;17.42;3.33;;;7.90;99.90;;;;;;5031293;28;20147;-82
2021/12/30 03:45:21;;;;;;;5.68;2.90;;;8.00;99.90;;;;;;5016968;28;20071;-82
2021/12/30 03:47:49;;;;;;;4.38;3.17;;;8.10;99.90;;;;;;5027880;28;20127;-81
2021/12/30 03:50:21;;;;;;;14.98;5.05;;;8.00;99.90;;;;;;5033408;28;20047;-82
2021/12/30 03:52:49;;;;;;;24.17;4.15;;;8.10;99.90;;;;;;5043641;28;20482;-81
2021/12/30 03:55:16;;;;;;;5.75;3.85;;;8.00;99.90;;;;;;5048707;28;20037;-80
2021/12/30 03:57:42;;;;;;;30.27;4.00;;;8.00;99.90;;;;;;5047708;28;20425;-82
2021/12/30 04:00:09;;;;;;;8.23;2.15;;;8.10;99.90;;;;;;5043796;28;20041;-84
2021/12/30 04:02:35;;;;;;;9.95;3.03;;;8.00;99.90;;;;;;5045357;28;20063;-81
2021/12/30 04:05:01;;;;;;;4.55;2.95;;;8.00;99.90;;;;;;5048310;28;20418;-82
2021/12/30 04:07:26;;;;;;;;;;;8.10;99.90;;;;;;5047766;28;20052;-81
2021/12/30 04:09:52;;;;;;;5.07;2.67;;;8.20;99.90;;;;;;5045054;28;19917;-82
2021/12/30 04:12:18;;;;;;;7.15;3.22;;;8.20;99.90;;;;;;5015373;28;20051;-81
2021/12/30 04:14:44;;;;;;;5.53;3.83;;;8.40;99.90;;;;;;5031422;28;20349;-81
2021/12/30 04:17:10;;;;;;;19.10;4.05;;;8.30;99.90;;;;;;5047554;28;20037;-82
2021/12/30 04:19:36;;;;;;;19.75;3.80;;;8.40;99.90;;;;;;5049642;28;20387;-79
2021/12/30 04:22:02;;;;;;;8.68;3.28;;;8.40;99.90;;;;;;5051222;28;20057;-82
2021/12/30 04:24:27;;;;;;;;;;;8.40;99.90;;;;;;5047550;28;20029;-82
2021/12/30 04:26:53;;;;;;;8.85;4.10;;;8.40;99.90;;;;;;5046962;28;19931;-81
2021/12/30 04:29:20;;;;;;;9.18;3.25;;;8.40;99.90;;;;;;5025786;28;20049;-80
2021/12/30 04:31:46;;;;;;;8.48;3.83;;;8.40;99.90;;;;;;5043411;28;20045;-79
2021/12/30 04:34:13;;;;;;;12.48;2.65;;;8.50;99.90;;;;;;5038418;28;20037;-82
2021/12/30 04:36:40;;;;;;;6.80;2.50;;;8.60;99.90;;;;;;5024825;28;20052;-81
2021/12/30 04:39:07;;;;;;;9.55;3.80;;;8.60;99.90;;;;;;5024408;28;20614;-82
2021/12/30 04:41:32;;;;;;;3.25;2.42;;;8.60;99.90;;;;;;5043756;28;20391;-81
2021/12/30 04:43:58;;;;;;;7.50;3.28;;;8.70;99.90;;;;;;5039596;28;20045;-79
2021/12/30 04:46:24;;;;;;;12.80;2.80;;;8.70;99.90;;;;;;5043957;28;20048;-82
2021/12/30 04:48:50;;;;;;;16.77;3.25;;;8.70;99.90;;;;;;5043902;28;20044;-80
2021/12/30 04:51:16;;;;;;;15.35;4.55;;;8.90;99.90;;;;;;5045014;28;20098;-81
2021/12/30 04:53:42;;;;;;;;;;;8.90;99.90;;;;;;5047927;28;20041;-81
2021/12/30 04:56:08;;;;;;;10.15;3.72;;;9.00;99.90;;;;;;5044867;28;20000;-83
2021/12/30 04:58:34;;;;;;;15.30;3.30;;;9.00;99.90;;;;;;5048023;28;20052;-81
2021/12/30 05:00:59;;;;;;;5.03;3.33;;;9.00;99.90;;;;;;5045799;28;20037;-81
2021/12/30 05:03:25;;;;;;;20.00;3.92;;;9.00;99.90;;;;;;5031100;28;20045;-81
2021/12/30 05:05:53;;;;;;;16.35;2.92;;;9.00;99.90;;;;;;5078118;28;20128;-81
2021/12/30 05:08:24;;;;;;;13.55;4.38;;;9.00;99.90;;;;;;5026865;28;20055;-81
2021/12/30 05:10:50;;;;;;;11.13;3.65;;;9.10;99.90;;;;;;5042900;28;20115;-82
2021/12/30 05:13:18;;;;;;;12.65;4.53;;;9.10;99.90;;;;;;5044119;28;20041;-82
2021/12/30 05:15:44;;;;;;;14.00;4.35;;;9.20;99.90;;;;;;5060465;28;20025;-80
2021/12/30 05:18:11;;;;;;;13.05;4.20;;;9.30;99.90;;;;;;5046186;28;20041;-83
2021/12/30 05:20:38;;;;;;;8.68;3.80;;;9.40;99.90;;;;;;5043843;28;20100;-80
2021/12/30 05:23:05;;;;;;;9.57;3.67;;;9.40;99.90;;;;;;5045690;28;20045;-80
2021/12/30 05:25:31;;;;;;;8.85;3.83;;;9.50;99.90;;;;;;5042404;28;20494;-81
2021/12/30 05:27:58;;;;;;;11.10;4.78;;;9.60;99.90;;;;;;5048441;28;20513;-82
2021/12/30 05:30:24;;;;;;;;;;;9.70;99.90;;;;;;5037339;28;20079;-82
2021/12/30 05:32:52;;;;;;;15.10;4.53;;;9.70;99.90;;;;;;5061590;28;20024;-81
2021/12/30 05:35:18;;;;;;;6.43;3.47;;;9.80;99.90;;;;;;5046500;28;20052;-81
2021/12/30 05:37:44;;;;;;;;;;;9.90;99.90;;;;;;5048860;28;20110;-80
2021/12/30 05:40:13;;;;;;;14.73;5.57;;;10.00;99.90;;;;;;5050954;28;19959;-81
2021/12/30 05:42:39;;;;;;;26.02;7.63;;;10.00;99.90;;;;;;5047395;28;20077;-83
2021/12/30 05:45:06;;;;;;;20.50;7.07;;;10.10;99.90;;;;;;5031115;28;20064;-81
2021/12/30 05:47:33;;;;;;;20.45;5.15;;;10.10;99.90;;;;;;5030966;28;20048;-81
2021/12/30 05:50:01;;;;;;;9.73;5.50;;;10.10;99.90;;;;;;5047609;28;20118;-80
2021/12/30 05:52:27;;;;;;;6.78;4.32;;;10.20;99.90;;;;;;5048322;28;20060;-81
2021/12/30 05:54:53;;;;;;;9.25;4.82;;;10.10;99.90;;;;;;5044290;28;20041;-80
2021/12/30 05:57:19;;;;;;;10.98;5.10;;;10.20;99.90;;;;;;5028964;28;20685;-81
2021/12/30 05:59:44;;;;;;;11.93;5.28;;;10.20;99.90;;;;;;5079084;28;20040;-82
2021/12/30 06:02:10;;;;;;;5.38;3.72;;;10.20;99.90;;;;;;5047405;28;20068;-82
2021/12/30 06:04:36;;;;;;;14.57;5.28;;;10.30;99.90;;;;;;5048006;28;20080;-82
2021/12/30 06:07:01;;;;;;;12.43;4.28;;;10.30;99.90;;;;;;5048969;28;20055;-83
2021/12/30 06:09:27;;;;;;;8.90;3.72;;;10.30;99.90;;;;;;5048435;28;20041;-82
2021/12/30 06:11:53;;;;;;;11.48;4.30;;;10.30;99.90;;;;;;5029643;28;20041;-83
2021/12/30 06:14:19;;;;;;;4.50;2.70;;;10.40;99.90;;;;;;5048294;28;20055;-82
2021/12/30 06:16:45;;;;;;;4.80;2.42;;;10.40;99.90;;;;;;5042961;28;20505;-81
2021/12/30 06:19:11;;;;;;;6.55;3.40;;;10.40;99.90;;;;;;5030418;28;20029;-82
2021/12/30 06:21:36;;;;;;;8.45;2.40;;;10.40;99.90;;;;;;5052749;28;20083;-81
2021/12/30 06:24:02;;;;;;;6.88;3.30;;;10.50;99.90;;;;;;5052721;28;20040;-81
2021/12/30 06:26:28;;;;;;;7.35;3.28;;;10.50;99.90;;;;;;5052114;28;20463;-84
2021/12/30 06:28:54;;;;;;;5.88;3.25;;;10.50;99.90;;;;;;5034168;28;20078;-82
2021/12/30 06:31:19;;;;;;;3.17;2.65;;;10.50;99.90;;;;;;5047062;28;20038;-81
2021/12/30 06:33:45;;;;;;;8.15;4.65;;;10.40;99.90;;;;;;5044411;28;20119;-81
2021/12/30 06:36:11;;;;;;;5.82;3.42;;;10.50;99.90;;;;;;5055178;28;20048;-81
2021/12/30 06:38:37;;;;;;;10.73;5.03;;;10.50;99.90;;;;;;5047494;28;20053;-82
2021/12/30 06:41:03;;;;;;;4.75;3.85;;;10.50;99.90;;;;;;5059773;28;20044;-80
2021/12/30 06:43:28;;;;;;;;;;;10.60;99.90;;;;;;5051672;28;20045;-82
2021/12/30 06:45:54;;;;;;;7.95;3.95;;;10.60;99.90;;;;;;5050566;28;19943;-81
2021/12/30 06:48:20;;;;;;;9.35;3.78;;;10.60;99.90;;;;;;5050701;28;20049;-80
2021/12/30 06:50:51;;;;;;;7.43;3.75;;;10.60;99.90;;;;;;5042306;28;20049;-83
2021/12/30 06:53:22;;;;;;;5.90;3.17;;;10.60;99.90;;;;;;5050690;28;20147;-81
2021/12/30 06:55:49;;;;;;;6.80;3.47;;;10.70;99.90;;;;;;5045565;28;20112;-82
2021/12/30 06:58:16;;;;;;;15.20;4.20;;;10.70;99.90;;;;;;5026108;28;21768;-81
2021/12/30 07:00:42;;;;;;;6.30;3.83;;;10.60;99.90;;;;;;5033379;28;20048;-84
2021/12/30 07:03:08;;;;;;;10.07;4.10;;;10.60;99.90;;;;;;5074058;28;20491;-81
2021/12/30 07:05:34;;;;;;;8.40;4.15;;;10.70;99.90;;;;;;5051819;28;20052;-80
2021/12/30 07:08:00;;;;;;;;;;;10.70;99.90;;;;;;5052693;28;20048;-81
2021/12/30 07:10:26;;;;;;;8.60;3.83;;;10.70;99.90;;;;;;5051177;28;20398;-83
2021/12/30 07:12:51;;;;;;;;;;;10.70;99.90;;;;;;5069439;28;20581;-84
2021/12/30 07:15:18;;;;;;;6.55;3.03;;;10.70;99.90;;;;;;5081844;28;19916;-83
2021/12/30 07:17:43;;;;;;;;;;;10.70;99.90;;;;;;5051602;28;20044;-81
2021/12/30 07:20:10;;;;;;;5.30;3.80;;;10.70;99.90;;;;;;5040431;28;20007;-85
2021/12/30 07:22:37;;;;;;;4.45;3.20;;;10.70;99.90;;;;;;5032202;28;20049;-82
2021/12/30 07:25:03;;;;;;;5.25;3.30;;;10.80;99.90;;;;;;5050948;28;20398;-81
2021/12/30 07:27:29;;;;;;;10.93;3.95;;;10.80;99.90;;;;;;5052335;28;20083;-85
2021/12/30 07:29:56;;;;;;;5.93;2.50;;;10.80;99.90;;;;;;5052404;28;20444;-83
2021/12/30 07:32:22;;;;;;;9.00;3.63;;;10.80;99.90;;;;;;5035128;28;20163;-84
2021/12/30 07:34:48;;;;;;;4.32;3.17;;;10.80;99.90;;;;;;5040011;28;20116;-85
2021/12/30 07:37:14;;;;;;;4.65;3.05;;;10.70;99.90;;;;;;5051714;28;20037;-83
2021/12/30 07:39:44;;;;;;;;;;;10.80;99.90;;;;;;5051512;28;20466;-84
2021/12/30 07:42:10;;;;;;;3.95;1.95;;;10.80;99.90;;;;;;5050558;28;19917;-85
2021/12/30 07:44:37;;;;;;;3.25;2.35;;;10.80;99.90;;;;;;5049474;28;20052;-86
2021/12/30 07:47:03;;;;;;;5.40;2.92;;;10.80;99.90;;;;;;5050905;28;20163;-84
2021/12/30 07:49:29;;;;;;;;;;;10.80;99.90;;;;;;5034285;28;20148;-84
2021/12/30 07:51:54;;;;;;;4.97;2.90;;;10.80;99.90;;;;;;5036246;28;20372;-86
2021/12/30 07:54:20;;;;;;;4.28;2.92;;;10.80;99.90;;;;;;5069198;28;20037;-85
2021/12/30 07:56:46;;;;;;;3.70;2.20;;;10.80;99.90;;;;;;5039847;28;20415;-85
2021/12/30 07:59:11;;;;;;;4.68;2.58;;;10.90;99.90;;;;;;5051026;28;20075;-86
2021/12/30 08:01:37;;;;;;;3.75;2.65;;;10.80;99.90;;;;;;5084144;28;20051;-83
2021/12/30 08:04:03;;;;;;;1.48;1.20;;;10.90;99.90;;;;;;5051309;28;20099;-84
2021/12/30 08:06:29;;;;;;;3.20;2.50;;;10.90;99.90;;;;;;5040227;28;20041;-83
2021/12/30 08:08:55;;;;;;;3.78;2.58;;;10.90;99.90;;;;;;5051377;28;20402;-87
2021/12/30 08:11:22;;;;;;;4.93;2.53;;;10.90;99.90;;;;;;5030766;28;20041;-83
2021/12/30 08:13:47;;;;;;;3.03;2.22;;;11.00;99.90;;;;;;5049946;28;20052;-86
2021/12/30 08:16:14;;;;;;;2.33;1.90;;;10.90;99.90;;;;;;5054876;28;20036;-83
2021/12/30 08:18:43;;;;;;;;;;;10.90;99.90;;;;;;5050900;28;20045;-82
2021/12/30 08:21:09;;;;;;;2.53;1.67;;;10.90;99.90;;;;;;5034845;28;19996;-88
2021/12/30 08:23:35;;;;;;;;;;;11.00;99.90;;;;;;5049765;28;20143;-87
2021/12/30 08:26:05;;;;;;;2.30;1.42;;;11.00;99.90;;;;;;5049554;28;19970;-86
2021/12/30 08:28:31;;;;;;;2.10;1.73;;;11.00;99.90;;;;;;5030849;28;20099;-85
2021/12/30 08:30:57;;;;;;;;;;;11.00;99.90;;;;;;5034713;28;20472;-83
2021/12/30 08:33:24;;;;;;;2.65;1.92;;;11.10;99.90;;;;;;5078316;28;20004;-85
2021/12/30 08:35:50;;;;;;;5.28;2.85;;;11.10;99.90;;;;;;5044576;28;20147;-84
2021/12/30 08:38:17;;;;;;;;;;;11.10;99.90;;;;;;5029309;28;20087;-83
2021/12/30 08:40:47;;;;;;;3.85;2.20;;;11.10;99.90;;;;;;5034468;28;20011;-84
2021/12/30 08:43:13;;;;;;;1.05;1.00;;;11.10;99.90;;;;;;5047814;28;20063;-84
2021/12/30 08:45:40;;;;;;;2.83;1.58;;;11.20;99.90;;;;;;5077970;28;20427;-85
2021/12/30 08:48:06;;;;;;;3.30;2.30;;;11.20;99.90;;;;;;5052178;28;20068;-84
2021/12/30 08:50:33;;;;;;;2.30;1.95;;;11.20;99.90;;;;;;5049035;28;20056;-83
2021/12/30 08:52:58;;;;;;;3.13;2.15;;;11.30;99.90;;;;;;5050503;28;20041;-84
2021/12/30 08:55:25;;;;;;;3.17;2.40;;;11.30;99.90;;;;;;5050133;28;20140;-83
2021/12/30 08:57:50;;;;;;;;;;;11.30;99.90;;;;;;5050739;28;20037;-84
2021/12/30 09:00:20;;;;;;;5.57;3.35;;;11.30;99.90;;;;;;5050093;28;19927;-84
2021/12/30 09:02:46;;;;;;;6.03;3.30;;;11.30;99.90;;;;;;5050475;28;20575;-85
2021/12/30 09:05:13;;;;;;;5.45;3.13;;;11.30;99.90;;;;;;5033519;28;20060;-84
2021/12/30 09:07:38;;;;;;;3.22;2.35;;;11.30;99.90;;;;;;5048514;28;20045;-84
2021/12/30 09:10:08;;;;;;;2.53;2.13;;;11.30;99.90;;;;;;5050463;28;20047;-84
2021/12/30 09:12:34;;;;;;;2.30;1.83;;;11.30;99.90;;;;;;5032934;28;20045;-83
2021/12/30 09:15:00;;;;;;;;;;;11.30;99.90;;;;;;5049453;28;20040;-84
2021/12/30 09:17:26;;;;;;;7.75;2.45;;;11.30;99.90;;;;;;5045266;28;20016;-84
2021/12/30 09:19:52;;;;;;;7.47;3.20;;;11.30;99.90;;;;;;5057370;28;20045;-85
2021/12/30 09:22:17;;;;;;;2.58;2.20;;;11.30;99.90;;;;;;5049271;28;20053;-84
2021/12/30 09:24:43;;;;;;;3.15;1.98;;;11.30;99.90;;;;;;5049815;28;20092;-84
2021/12/30 09:27:09;;;;;;;6.53;3.90;;;11.30;99.90;;;;;;5052919;28;20124;-85
2021/12/30 09:29:35;;;;;;;3.63;2.15;;;11.30;99.90;;;;;;5031143;28;20479;-85
2021/12/30 09:32:01;;;;;;;6.68;2.35;;;11.30;99.90;;;;;;5053363;28;20501;-86
2021/12/30 09:34:26;;;;;;;;;;;11.30;99.90;;;;;;5029826;28;20120;-85
2021/12/30 09:36:52;;;;;;;2.75;1.75;;;11.30;99.90;;;;;;5081957;28;19995;-84
2021/12/30 09:39:18;;;;;;;1.58;1.48;;;11.30;99.90;;;;;;5053705;28;20068;-84
2021/12/30 09:41:45;;;;;;;2.22;1.90;;;11.30;99.90;;;;;;5053934;28;20037;-85
2021/12/30 09:44:14;;;;;;;6.57;2.55;;;11.30;99.90;;;;;;5049794;28;20047;-85
2021/12/30 09:46:41;;;;;;;3.13;2.38;;;11.30;99.90;;;;;;5051469;28;20495;-85
2021/12/30 09:49:08;;;;;;;3.30;2.17;;;11.30;99.90;;;;;;5048197;28;20048;-85
2021/12/30 09:51:35;;;;;;;3.95;2.38;;;11.40;99.90;;;;;;5020152;28;20091;-83
2021/12/30 09:54:01;;;;;;;3.97;2.05;;;11.30;99.90;;;;;;5053932;28;20399;-85
2021/12/30 09:56:28;;;;;;;7.47;3.10;;;11.40;99.90;;;;;;5052671;28;20490;-84
2021/12/30 09:58:54;;;;;;;3.75;2.15;;;11.40;99.90;;;;;;5045727;28;20041;-84
2021/12/30 10:01:20;;;;;;;5.20;2.30;;;11.40;99.90;;;;;;5069203;28;20159;-83
2021/12/30 10:03:46;;;;;;;;;;;11.30;99.90;;;;;;5055269;28;20079;-82
2021/12/30 10:06:17;;;;;;;7.25;4.00;;;11.30;99.90;;;;;;5033205;28;19921;-83
2021/12/30 10:08:55;;;;;;;6.22;4.13;;;11.40;99.90;;;;;;5042491;28;20044;-84
2021/12/30 10:11:21;;;;;;;2.83;1.83;;;11.50;99.90;;;;;;5035064;28;20079;-82
2021/12/30 10:14:05;;;;;;;3.13;2.63;;;11.50;99.90;;;;;;5050446;28;20130;-83
2021/12/30 10:16:31;;;;;;;12.82;3.75;;;11.50;99.90;;;;;;5049998;28;20394;-83
2021/12/30 10:19:02;;;;;;;14.10;4.32;;;11.50;99.90;;;;;;5034490;28;20041;-85
2021/12/30 10:21:33;;;;;;;7.07;2.33;;;11.50;99.90;;;;;;5032513;28;20081;-85
2021/12/30 10:24:06;;;;;;;8.07;3.03;;;11.50;99.90;;;;;;5035260;28;20391;-83
2021/12/30 10:26:48;;;;;;;8.05;2.95;;;11.50;99.90;;;;;;5026419;28;20041;-86
2021/12/30 10:29:13;;;;;;;8.18;2.50;;;11.50;99.90;;;;;;5054583;28;20080;-83
2021/12/30 10:31:40;;;;;;;3.83;2.10;;;11.50;99.90;;;;;;5052673;28;20041;-84
2021/12/30 10:34:09;;;;;;;6.45;2.20;;;11.50;99.90;;;;;;5037086;28;20048;-85
2021/12/30 10:36:47;;;;;;;3.95;2.67;;;11.50;99.90;;;;;;5054262;28;20442;-84
2021/12/30 10:39:26;;;;;;;4.55;2.20;;;11.60;99.90;;;;;;5048870;28;20045;-83
2021/12/30 10:42:16;;;;;;;4.35;2.83;;;11.50;99.90;;;;;;5052691;28;20047;-85
2021/12/30 10:44:54;;;;;;;6.78;1.60;;;11.60;99.90;;;;;;5081021;28;20437;-85
2021/12/30 10:47:26;;;;;;;3.75;2.60;;;11.50;99.90;;;;;;5052026;28;20100;-85
2021/12/30 10:50:12;;;;;;;6.07;2.50;;;11.50;99.90;;;;;;5050206;28;20048;-84
2021/12/30 10:52:49;;;;;;;4.97;2.28;;;11.50;99.90;;;;;;5048020;28;20189;-83
2021/12/30 10:55:15;;;;;;;4.25;1.95;;;11.50;99.90;;;;;;5046046;28;20041;-83
2021/12/30 10:57:42;;;;;;;9.73;3.92;;;11.50;99.90;;;;;;5078703;28;20044;-82
2021/12/30 11:00:09;;;;;;;11.85;2.90;;;11.50;99.90;;;;;;5043116;28;20037;-83
2021/12/30 11:02:36;;;;;;;5.78;3.17;;;11.50;99.90;;;;;;5032406;28;20098;-84
2021/12/30 11:05:09;;;;;;;8.43;3.33;;;11.50;99.90;;;;;;5048865;28;20060;-84
2021/12/30 11:07:46;;;;;;;8.07;2.88;;;11.50;99.90;;;;;;5083594;28;20049;-83
2021/12/30 11:10:17;;;;;;;7.40;2.75;;;11.50;99.90;;;;;;5049902;28;20115;-83
2021/12/30 11:12:46;;;;;;;6.38;2.92;;;11.50;99.90;;;;;;5047805;28;20102;-82
2021/12/30 11:15:26;;;;;;;4.93;3.05;;;11.50;99.90;;;;;;5052234;28;20512;-85
2021/12/30 11:18:10;;;;;;;10.02;2.40;;;11.60;99.90;;;;;;5038939;28;20056;-82
2021/12/30 11:20:41;;;;;;;4.32;2.50;;;11.60;99.90;;;;;;5034608;28;20410;-84
2021/12/30 11:23:08;;;;;;;2.60;1.95;;;11.60;99.90;;;;;;5035420;28;20084;-85
2021/12/30 11:25:34;;;;;;;4.82;2.55;;;11.60;99.90;;;;;;5050312;28;20041;-83
2021/12/30 11:28:00;;;;;;;;;;;11.60;99.90;;;;;;5038085;28;20049;-83
2021/12/30 11:30:25;;;;;;;8.15;2.75;;;11.50;99.90;;;;;;5051944;28;19916;-84
2021/12/30 11:32:51;;;;;;;4.35;2.55;;;11.60;99.90;;;;;;5035708;28;20049;-86
2021/12/30 11:35:21;;;;;;;3.83;2.35;;;11.60;99.90;;;;;;5053609;28;20047;-83
2021/12/30 11:37:48;;;;;;;6.97;2.90;;;11.50;99.90;;;;;;5051938;28;20469;-85
2021/12/30 11:40:18;;;;;;;3.08;2.30;;;11.60;99.90;;;;;;5027042;28;20538;-88
2021/12/30 11:42:47;;;;;;;3.92;2.35;;;11.60;99.90;;;;;;5052101;28;20497;-82
2021/12/30 11:45:35;;;;;;;17.52;3.85;;;11.50;99.90;;;;;;5050363;28;20421;-83
2021/12/30 11:48:04;;;;;;;7.10;3.50;;;11.60;99.90;;;;;;5063786;28;20677;-81
2021/12/30 11:50:34;;;;;;;4.88;2.78;;;11.50;99.90;;;;;;5050748;28;20088;-85
2021/12/30 11:53:06;;;;;;;13.73;4.10;;;11.50;99.90;;;;;;5051135;28;20045;-84
2021/12/30 11:55:47;;;;;;;3.40;2.35;;;11.60;99.90;;;;;;5051137;28;20119;-82
2021/12/30 11:58:40;;;;;;;8.35;2.65;;;11.50;99.90;;;;;;5049149;28;20083;-84
2021/12/30 12:01:17;;;;;;;13.43;3.75;;;11.50;99.90;;;;;;5046623;28;20083;-79
2021/12/30 12:03:48;;;;;;;15.18;3.05;;;11.50;99.90;;;;;;5034158;28;20078;-79
2021/12/30 12:06:28;;;;;;;8.35;3.28;;;11.50;99.90;;;;;;5043506;28;20147;-80
2021/12/30 12:08:58;;;;;;;14.95;4.22;;;11.60;99.90;;;;;;5074943;28;20116;-84
2021/12/30 12:11:43;;;;;;;13.07;3.55;;;11.50;99.90;;;;;;5051010;28;20037;-80
2021/12/30 12:14:25;;;;;;;8.68;2.83;;;11.60;99.90;;;;;;5049113;28;20040;-83
2021/12/30 12:16:55;;;;;;;11.18;2.80;;;11.60;99.90;;;;;;5047125;28;20121;-79
2021/12/30 12:19:44;;;;;;;6.78;2.58;;;11.50;99.90;;;;;;5050473;28;20052;-79
2021/12/30 12:22:18;;;;;;;12.07;3.55;;;11.60;99.90;;;;;;5047932;28;20060;-80
2021/12/30 12:24:49;;;;;;;24.05;3.33;;;11.60;99.90;;;;;;5050354;28;20053;-80
2021/12/30 12:27:18;;;;;;;14.70;3.88;;;11.60;99.90;;;;;;5046915;28;20139;-80
2021/12/30 12:29:51;;;;;;;10.07;2.40;;;11.70;99.90;;;;;;5050244;28;20045;-80
2021/12/30 12:32:33;;;;;;;12.27;2.60;;;11.70;99.90;;;;;;5034331;28;20048;-79
2021/12/30 12:35:03;;;;;;;7.88;2.88;;;11.80;99.90;;;;;;5044842;28;20486;-81
2021/12/30 12:37:32;;;;;;;13.27;3.13;;;11.80;99.90;;;;;;5039611;28;20052;-84
2021/12/30 12:40:07;;;;;;;4.45;2.20;;;11.90;99.90;;;;;;5049527;28;20052;-79
2021/12/30 12:42:51;;;;;;;8.70;2.90;;;11.90;99.90;;;;;;5049068;28;20048;-81
2021/12/30 12:45:21;;;;;;;8.02;2.40;;;11.90;99.90;;;;;;5050356;28;20522;-84
2021/12/30 12:48:08;;;;;;;7.28;3.55;;;11.90;99.90;;;;;;5033531;28;20128;-79
2021/12/30 12:50:39;;;;;;;3.95;2.53;;;12.00;99.90;;;;;;5050803;28;20093;-78
2021/12/30 12:53:37;;;;;;;4.68;2.17;;;12.00;99.90;;;;;;5050829;28;20076;-81
2021/12/30 12:56:14;;;;;;;6.47;2.55;;;11.90;99.90;;;;;;5022073;28;20044;-78
2021/12/30 12:58:44;;;;;;;8.38;2.50;;;11.90;99.90;;;;;;5051629;28;20561;-79
2021/12/30 13:01:14;;;;;;;6.13;2.60;;;11.90;99.90;;;;;;5051193;28;20053;-78